Time;durP1;ratioP1;P1;durP2;ratioP2;P2;SDS_P1;SDS_P2;PMS_P1;PMS_P2;Temp;Humidity;BMP_temperature;BMP_pressure;BME280_temperature;BME280_humidity;BME280_pressure;Samples;Min_cycle;Max_cycle;Signal;HPM_P1;HPM_P2
2021/10/23 00:00:48;;;;;;;2.42;0.98;;;;;;;7.33;67.51;99578.38;5104401;28;20020;-72
2021/10/23 00:03:13;;;;;;;4.97;1.00;;;;;;;7.26;67.13;99580.16;5104349;28;20031;-72
2021/10/23 00:05:39;;;;;;;4.50;0.93;;;;;;;7.19;66.65;99589.66;5104234;28;20065;-72
2021/10/23 00:08:05;;;;;;;4.00;0.82;;;;;;;7.16;67.20;99591.41;5104269;28;20057;-71
2021/10/23 00:10:30;;;;;;;2.63;0.70;;;;;;;7.09;67.42;99594.91;5104404;28;20016;-71
2021/10/23 00:12:56;;;;;;;2.63;0.80;;;;;;;7.07;67.67;99605.25;5086021;28;20387;-72
2021/10/23 00:15:21;;;;;;;2.38;0.88;;;;;;;7.04;67.70;99607.84;5103030;28;20020;-72
2021/10/23 00:17:47;;;;;;;4.82;0.70;;;;;;;6.99;67.94;99627.66;5103947;28;20028;-71
2021/10/23 00:20:12;;;;;;;4.38;1.33;;;;;;;6.92;67.89;99621.66;5103566;28;20059;-71
2021/10/23 00:22:38;;;;;;;2.58;0.80;;;;;;;6.93;67.96;99624.25;5103903;28;20035;-71
2021/10/23 00:25:04;;;;;;;7.00;1.38;;;;;;;6.91;68.11;99630.28;5103472;28;20123;-71
2021/10/23 00:27:31;;;;;;;4.55;0.85;;;;;;;6.87;67.83;99636.34;5119296;28;20475;-71
2021/10/23 00:29:58;;;;;;;3.17;0.63;;;;;;;6.89;68.06;99634.59;5104006;28;20077;-72
2021/10/23 00:32:24;;;;;;;9.02;1.20;;;;;;;6.89;68.30;99648.38;5104095;28;20023;-73
2021/10/23 00:34:50;;;;;;;3.67;0.95;;;;;;;6.86;68.33;99657.84;5103649;28;20084;-72
2021/10/23 00:37:15;;;;;;;2.53;1.17;;;;;;;6.81;67.81;99657.84;5103810;28;20059;-72
2021/10/23 00:39:40;;;;;;;1.98;0.85;;;;;;;6.84;68.13;99669.91;5103391;28;20032;-71
2021/10/23 00:42:05;;;;;;;2.33;0.90;;;;;;;6.84;67.95;99675.91;5103880;28;20024;-72
2021/10/23 00:44:35;;;;;;;4.35;1.05;;;;;;;6.83;67.65;99676.78;5103599;28;20102;-72
2021/10/23 00:47:05;;;;;;;3.83;1.08;;;;;;;6.79;68.03;99690.53;5103872;28;20043;-71
2021/10/23 00:49:31;;;;;;;2.30;1.05;;;;;;;6.76;67.94;99698.28;5085234;28;20019;-70
2021/10/23 00:51:58;;;;;;;2.58;1.13;;;;;;;6.69;68.01;99689.75;5103393;28;20028;-71
2021/10/23 00:54:26;;;;;;;5.72;1.13;;;;;;;6.61;68.08;99696.66;5103479;28;20024;-72
2021/10/23 00:56:53;;;;;;;6.75;1.35;;;;;;;6.62;68.03;99701.81;5103548;28;20373;-72
2021/10/23 00:59:18;;;;;;;2.85;0.90;;;;;;;6.55;68.29;99708.69;5103411;28;20073;-72
2021/10/23 01:01:44;;;;;;;4.40;0.73;;;;;;;6.50;68.16;99707.00;5103738;28;20019;-71
2021/10/23 01:04:09;;;;;;;2.88;1.25;;;;;;;6.50;68.32;99709.59;5103444;28;20028;-71
2021/10/23 01:06:35;;;;;;;3.97;1.10;;;;;;;6.47;68.26;99709.59;5103622;28;20066;-72
2021/10/23 01:09:00;;;;;;;4.72;0.90;;;;;;;6.44;68.27;99724.19;5103297;28;20443;-70
2021/10/23 01:11:27;;;;;;;1.63;0.80;;;;;;;6.44;68.48;99729.34;5103200;28;20039;-72
2021/10/23 01:13:52;;;;;;;5.97;1.60;;;;;;;6.43;68.52;99735.38;5103296;28;20103;-73
2021/10/23 01:16:17;;;;;;;3.63;0.88;;;;;;;6.42;68.57;99745.69;5103276;28;20073;-72
2021/10/23 01:18:44;;;;;;;2.15;0.60;;;;;;;6.41;68.38;99744.84;5102952;28;20028;-73
2021/10/23 01:21:10;;;;;;;6.03;1.05;;;;;;;6.37;68.27;99748.28;5103026;28;20024;-71
2021/10/23 01:23:35;;;;;;;3.40;1.00;;;;;;;6.40;67.94;99753.44;5102783;28;20042;-71
2021/10/23 01:26:01;;;;;;;3.97;0.80;;;;;;;6.47;67.92;99772.31;5103085;28;20340;-71
2021/10/23 01:28:27;;;;;;;6.93;1.15;;;;;;;6.50;68.27;99774.06;5106875;28;20043;-72
2021/10/23 01:30:56;;;;;;;2.88;1.10;;;;;;;6.52;68.43;99773.19;5106936;28;20020;-71
2021/10/23 01:33:22;;;;;;;2.40;0.68;;;;;;;6.57;67.99;99781.78;5107154;28;20529;-72
2021/10/23 01:35:48;;;;;;;3.72;0.80;;;;;;;6.57;67.79;99773.16;5107039;28;20028;-71
2021/10/23 01:38:13;;;;;;;5.50;1.00;;;;;;;6.63;68.09;99788.63;5088589;28;20020;-71
2021/10/23 01:40:39;;;;;;;3.17;0.80;;;;;;;6.64;68.03;99792.94;5106780;28;20020;-72
2021/10/23 01:43:05;;;;;;;4.13;0.70;;;;;;;6.68;67.99;99798.94;5106812;28;20107;-72
2021/10/23 01:45:32;;;;;;;7.38;1.20;;;;;;;6.68;67.50;99799.81;5106910;28;20108;-72
2021/10/23 01:47:57;;;;;;;3.50;1.13;;;;;;;6.71;67.61;99809.25;5106650;28;20044;-71
2021/10/23 01:50:24;;;;;;;2.95;0.93;;;;;;;6.76;67.70;99809.22;5106427;28;20024;-71
2021/10/23 01:52:51;;;;;;;6.70;0.93;;;;;;;6.80;67.51;99810.97;5106499;28;20024;-72
2021/10/23 01:55:18;;;;;;;5.30;1.00;;;;;;;6.82;67.22;99812.66;5088113;28;20035;-71
2021/10/23 01:57:44;;;;;;;2.03;0.90;;;;;;;6.85;66.81;99822.13;5106537;28;20021;-71
2021/10/23 02:00:11;;;;;;;3.80;0.90;;;;;;;6.89;66.65;99829.00;5088215;28;20028;-70
2021/10/23 02:02:37;;;;;;;2.60;0.70;;;;;;;6.91;66.53;99829.00;5106499;28;20075;-71
2021/10/23 02:05:03;;;;;;;2.72;1.10;;;;;;;6.90;66.46;99822.97;5106279;28;20020;-71
2021/10/23 02:07:28;;;;;;;6.55;1.02;;;;;;;6.92;66.10;99828.13;5106564;28;20024;-72
2021/10/23 02:09:54;;;;;;;2.63;1.25;;;;;;;6.99;65.88;99847.03;5106394;28;20020;-72
2021/10/23 02:12:19;;;;;;;2.25;0.77;;;;;;;6.98;66.33;99841.00;5106344;28;20035;-72
2021/10/23 02:14:46;;;;;;;5.25;0.73;;;;;;;6.98;65.90;99843.56;5106334;28;20024;-72
2021/10/23 02:17:11;;;;;;;2.70;0.88;;;;;;;7.01;65.66;99850.47;5106290;28;20079;-72
2021/10/23 02:19:36;;;;;;;1.65;0.90;;;;;;;7.03;65.90;99851.31;5105888;28;20016;-71
2021/10/23 02:22:02;;;;;;;2.55;0.80;;;;;;;7.02;65.54;99859.91;5106078;28;20020;-71
2021/10/23 02:24:27;;;;;;;2.60;0.90;;;;;;;7.02;65.29;99858.22;5105817;28;20056;-72
2021/10/23 02:26:52;;;;;;;2.20;1.00;;;;;;;7.03;65.60;99867.66;5106159;28;20020;-71
2021/10/23 02:29:18;;;;;;;2.53;0.70;;;;;;;7.01;65.35;99884.88;5105766;28;20024;-70
2021/10/23 02:31:43;;;;;;;6.70;1.00;;;;;;;7.02;65.62;99875.41;5105985;28;20335;-72
2021/10/23 02:34:08;;;;;;;4.60;0.90;;;;;;;7.02;65.71;99885.72;5087481;28;20024;-71
2021/10/23 02:36:34;;;;;;;3.25;0.93;;;;;;;7.01;65.47;99892.59;5087520;28;20052;-71
2021/10/23 02:38:59;;;;;;;2.30;0.80;;;;;;;6.94;65.42;99894.38;5104690;28;20023;-71
2021/10/23 02:41:25;;;;;;;3.95;0.77;;;;;;;6.97;65.45;99902.94;5105662;28;20612;-71
2021/10/23 02:43:52;;;;;;;2.03;0.65;;;;;;;6.95;65.63;99908.09;5105919;28;20080;-71
2021/10/23 02:46:18;;;;;;;2.72;0.80;;;;;;;6.91;65.38;99912.44;5105757;28;20054;-71
2021/10/23 02:48:44;;;;;;;2.85;0.90;;;;;;;6.97;65.33;99931.31;5105529;28;20032;-71
2021/10/23 02:51:09;;;;;;;3.92;0.80;;;;;;;6.98;65.21;99933.91;5105408;28;20028;-72
2021/10/23 02:53:34;;;;;;;2.47;0.85;;;;;;;6.91;64.90;99917.59;5105632;28;20024;-72
2021/10/23 02:55:59;;;;;;;4.57;1.25;;;;;;;6.92;64.56;99921.88;5105356;28;20062;-72
2021/10/23 02:58:25;;;;;;;8.40;0.82;;;;;;;6.93;64.88;99939.06;5105397;28;20024;-72
2021/10/23 03:00:50;;;;;;;3.90;0.75;;;;;;;6.89;64.33;99942.53;5105375;28;20027;-72
2021/10/23 03:03:16;;;;;;;4.30;1.10;;;;;;;6.89;64.16;99959.72;5105361;28;20020;-71
2021/10/23 03:05:41;;;;;;;5.60;1.00;;;;;;;6.80;64.63;99958.91;5104910;28;20020;-71
2021/10/23 03:08:07;;;;;;;4.70;1.13;;;;;;;6.79;65.07;99958.88;5105218;28;20016;-71
2021/10/23 03:10:32;;;;;;;4.70;1.55;;;;;;;6.77;64.76;99965.75;5105213;28;20071;-71
2021/10/23 03:12:58;;;;;;;5.93;0.90;;;;;;;6.63;65.04;99955.44;5105046;28;20024;-71
2021/10/23 03:15:23;;;;;;;4.18;0.88;;;;;;;6.76;65.06;99979.50;5105345;28;20047;-71
2021/10/23 03:17:48;;;;;;;4.68;1.15;;;;;;;6.75;65.12;99982.97;5105064;28;20020;-71
2021/10/23 03:20:14;;;;;;;3.05;0.70;;;;;;;6.77;64.88;99982.09;5104576;28;20399;-71
2021/10/23 03:22:39;;;;;;;3.40;1.23;;;;;;;6.72;64.92;99976.09;5104858;28;20475;-71
2021/10/23 03:25:06;;;;;;;2.72;0.73;;;;;;;6.79;64.86;99993.28;5104598;28;20058;-71
2021/10/23 03:27:31;;;;;;;3.38;0.90;;;;;;;6.76;64.91;100007.88;5105086;28;20021;-71
2021/10/23 03:29:56;;;;;;;2.13;0.73;;;;;;;6.76;65.00;100010.47;5104710;28;20035;-72
2021/10/23 03:32:22;;;;;;;6.47;1.10;;;;;;;6.78;64.69;100019.06;5104877;28;20083;-71
2021/10/23 03:34:48;;;;;;;3.28;1.25;;;;;;;6.78;64.53;100016.50;5104438;28;20020;-71
2021/10/23 03:37:13;;;;;;;2.72;0.80;;;;;;;6.79;64.67;100031.09;5104520;28;20577;-71
2021/10/23 03:39:40;;;;;;;1.33;1.13;;;;;;;6.77;64.62;100036.25;5104412;28;20020;-71
2021/10/23 03:42:06;;;;;;;2.97;1.45;;;;;;;6.75;64.34;100031.97;5104685;28;20024;-71
2021/10/23 03:44:31;;;;;;;3.97;0.80;;;;;;;6.78;64.20;100034.56;5104416;28;20351;-70
2021/10/23 03:46:56;;;;;;;2.65;0.70;;;;;;;6.79;63.77;100031.97;5104660;28;20024;-72
2021/10/23 03:49:22;;;;;;;3.85;0.68;;;;;;;6.81;63.33;100043.16;5104262;28;20045;-71
2021/10/23 03:51:47;;;;;;;1.40;0.60;;;;;;;6.84;62.73;100052.63;5104602;28;20032;-72
2021/10/23 03:54:13;;;;;;;2.30;0.90;;;;;;;6.81;60.79;100039.72;5104434;28;20020;-72
2021/10/23 03:56:38;;;;;;;8.70;0.70;;;;;;;6.81;60.78;100043.16;5104267;28;20016;-73
2021/10/23 03:59:03;;;;;;;2.97;0.73;;;;;;;6.91;60.35;100072.44;5104407;28;20024;-72
2021/10/23 04:01:29;;;;;;;2.85;0.93;;;;;;;6.74;61.04;100045.75;5104255;28;20091;-72
2021/10/23 04:03:54;;;;;;;3.58;0.80;;;;;;;6.89;60.39;100079.31;5104051;28;20054;-71
2021/10/23 04:06:20;;;;;;;2.72;0.73;;;;;;;6.85;60.36;100079.31;5103890;28;20024;-71
2021/10/23 04:08:45;;;;;;;2.78;0.63;;;;;;;6.86;59.81;100089.63;5103919;28;20024;-72
2021/10/23 04:11:10;;;;;;;3.20;0.73;;;;;;;6.87;59.71;100106.81;5103974;28;20024;-72
2021/10/23 04:13:36;;;;;;;6.50;0.75;;;;;;;6.87;59.97;100118.88;5103958;28;20031;-71
2021/10/23 04:16:02;;;;;;;1.73;0.57;;;;;;;6.90;60.64;100126.63;5103935;28;20306;-71
2021/10/23 04:18:27;;;;;;;1.80;0.70;;;;;;;6.87;60.81;100137.78;5103885;28;20070;-72
2021/10/23 04:20:53;;;;;;;5.38;1.30;;;;;;;6.84;60.79;100144.69;5085726;28;20024;-71
2021/10/23 04:23:18;;;;;;;3.70;0.70;;;;;;;6.58;61.04;100112.78;5103949;28;20032;-70
2021/10/23 04:25:43;;;;;;;5.50;0.80;;;;;;;6.71;61.15;100149.78;5104007;28;20027;-72
2021/10/23 04:28:09;;;;;;;2.10;0.63;;;;;;;6.63;61.22;100143.75;5103776;28;20394;-71
2021/10/23 04:30:34;;;;;;;3.92;0.60;;;;;;;6.56;61.42;100156.63;5103864;28;20024;-72
2021/10/23 04:32:59;;;;;;;1.75;0.80;;;;;;;6.51;61.63;100162.59;5103891;28;20088;-72
2021/10/23 04:35:25;;;;;;;2.55;0.68;;;;;;;6.31;61.73;100138.44;5103558;28;20020;-71
2021/10/23 04:37:50;;;;;;;2.17;0.60;;;;;;;6.38;61.79;100172.88;5085548;28;20024;-71
2021/10/23 04:40:15;;;;;;;3.78;0.90;;;;;;;6.32;61.87;100171.13;5103511;28;20019;-72
2021/10/23 04:42:41;;;;;;;2.05;0.80;;;;;;;6.26;61.95;100183.13;5103581;28;20033;-71
2021/10/23 04:45:07;;;;;;;3.28;0.70;;;;;;;6.19;62.07;100187.38;5103654;28;20020;-72
2021/10/23 04:47:32;;;;;;;3.63;0.82;;;;;;;6.12;62.02;100186.47;5103466;28;20435;-72
2021/10/23 04:49:58;;;;;;;3.03;0.60;;;;;;;6.14;62.29;100199.34;5103309;28;20035;-72
2021/10/23 04:52:23;;;;;;;1.35;0.50;;;;;;;6.08;62.47;100202.78;5103295;28;20050;-72
2021/10/23 04:54:48;;;;;;;1.67;0.60;;;;;;;6.05;62.38;100207.91;5103374;28;20115;-70
2021/10/23 04:57:14;;;;;;;9.23;0.80;;;;;;;6.03;62.53;100207.00;5103617;28;20024;-70
2021/10/23 04:59:39;;;;;;;5.25;0.95;;;;;;;6.00;62.58;100217.28;5103623;28;20035;-72
2021/10/23 05:02:05;;;;;;;3.67;1.00;;;;;;;5.94;62.52;100218.94;5086829;28;20429;-73
2021/10/23 05:04:30;;;;;;;2.50;1.38;;;;;;;5.93;62.58;100217.22;5107147;28;20032;-73
2021/10/23 05:06:55;;;;;;;1.25;0.63;;;;;;;5.91;62.49;100218.94;5107419;28;20016;-73
2021/10/23 05:09:21;;;;;;;5.75;1.20;;;;;;;5.89;62.38;100220.66;5107674;28;20024;-73
2021/10/23 05:11:48;;;;;;;2.60;0.68;;;;;;;5.87;62.30;100227.50;5107672;28;20488;-73
2021/10/23 05:14:13;;;;;;;3.38;0.70;;;;;;;5.89;62.49;100240.41;5107457;28;20035;-72
2021/10/23 05:16:39;;;;;;;1.45;0.60;;;;;;;5.90;62.21;100242.09;5107700;28;20024;-72
2021/10/23 05:19:04;;;;;;;1.30;0.63;;;;;;;5.89;62.43;100246.41;5107551;28;20024;-73
2021/10/23 05:21:29;;;;;;;0.65;0.50;;;;;;;5.87;62.30;100242.97;5107466;28;20028;-72
2021/10/23 05:23:57;;;;;;;3.80;0.63;;;;;;;5.84;62.19;100253.25;5107356;28;20476;-72
2021/10/23 05:26:22;;;;;;;3.83;0.52;;;;;;;5.75;62.23;100243.69;5107617;28;20345;-72
2021/10/23 05:28:47;;;;;;;1.67;0.90;;;;;;;5.82;62.24;100265.22;5107222;28;20031;-72
2021/10/23 05:31:13;;;;;;;2.30;0.65;;;;;;;5.72;61.83;100258.28;5122798;28;20035;-73
2021/10/23 05:33:39;;;;;;;2.88;0.77;;;;;;;5.82;61.68;100279.00;5107142;28;20078;-74
2021/10/23 05:36:04;;;;;;;2.83;0.60;;;;;;;5.85;61.68;100277.31;5106771;28;20027;-73
2021/10/23 05:38:29;;;;;;;1.02;0.50;;;;;;;5.78;61.44;100273.78;5106991;28;20169;-74
2021/10/23 05:40:55;;;;;;;4.88;0.93;;;;;;;5.88;61.36;100290.22;5106890;28;20252;-68
2021/10/23 05:43:20;;;;;;;5.05;0.70;;;;;;;5.78;61.50;100279.78;5106887;28;20027;-71
2021/10/23 05:45:46;;;;;;;4.65;0.52;;;;;;;5.85;61.51;100296.19;5106717;28;20030;-66
2021/10/23 05:48:11;;;;;;;3.35;0.57;;;;;;;5.82;61.41;100309.91;5106811;28;20031;-69
2021/10/23 05:50:37;;;;;;;1.58;0.60;;;;;;;5.78;61.07;100308.13;5106548;28;20021;-67
2021/10/23 05:53:02;;;;;;;1.92;0.60;;;;;;;5.83;61.19;100318.50;5106780;28;20050;-68
2021/10/23 05:55:30;;;;;;;0.95;0.50;;;;;;;5.83;61.24;100321.09;5106931;28;20020;-68
2021/10/23 05:57:55;;;;;;;3.10;1.05;;;;;;;5.81;61.27;100321.03;5106701;28;20024;-68
2021/10/23 06:00:21;;;;;;;2.63;0.70;;;;;;;5.76;61.18;100320.16;5106500;28;20020;-68
2021/10/23 06:02:47;;;;;;;2.90;0.60;;;;;;;5.72;61.26;100328.69;5106667;28;20042;-68
2021/10/23 06:05:12;;;;;;;3.58;0.60;;;;;;;5.79;61.44;100347.66;5106489;28;20028;-68
2021/10/23 06:07:40;;;;;;;0.40;0.40;;;;;;;5.79;61.27;100352.81;5088043;28;20031;-69
2021/10/23 06:10:08;;;;;;;1.75;0.70;;;;;;;5.75;61.21;100361.34;5087692;28;20062;-68
2021/10/23 06:12:34;;;;;;;1.35;0.60;;;;;;;5.72;61.31;100371.63;5105704;28;20024;-67
2021/10/23 06:15:00;;;;;;;2.05;0.88;;;;;;;5.67;61.15;100380.16;5105423;28;20031;-69
2021/10/23 06:17:25;;;;;;;4.47;0.70;;;;;;;5.66;61.34;100391.31;5106245;28;20041;-69
2021/10/23 06:19:51;;;;;;;2.30;0.90;;;;;;;5.63;61.41;100390.41;5106047;28;20058;-69
2021/10/23 06:22:16;;;;;;;1.98;0.77;;;;;;;5.46;61.37;100373.06;5106313;28;20031;-72
2021/10/23 06:24:42;;;;;;;1.92;0.98;;;;;;;5.52;61.56;100390.28;5105901;28;20065;-72
2021/10/23 06:27:10;;;;;;;3.95;0.90;;;;;;;5.57;61.52;100404.94;5106139;28;20103;-73
2021/10/23 06:29:39;;;;;;;3.75;0.80;;;;;;;5.55;61.61;100400.63;5105575;28;20084;-72
2021/10/23 06:32:05;;;;;;;8.15;0.98;;;;;;;5.62;61.76;100414.44;5105631;28;20236;-72
2021/10/23 06:34:31;;;;;;;2.55;0.90;;;;;;;5.62;61.74;100423.03;5105535;28;20027;-71
2021/10/23 06:36:59;;;;;;;6.28;0.88;;;;;;;5.65;61.86;100428.22;5105829;28;20541;-73
2021/10/23 06:39:27;;;;;;;4.03;0.80;;;;;;;5.69;61.84;100434.25;5087475;28;20032;-73
2021/10/23 06:41:53;;;;;;;0.90;0.60;;;;;;;5.69;61.88;100440.28;5105806;28;20098;-73
2021/10/23 06:44:18;;;;;;;3.63;0.65;;;;;;;5.75;61.57;100447.22;5087663;28;20036;-73
2021/10/23 06:46:44;;;;;;;1.65;0.60;;;;;;;5.79;61.79;100435.25;5105956;28;20031;-73
2021/10/23 06:49:09;;;;;;;1.60;0.60;;;;;;;5.91;61.50;100455.16;5105705;28;20032;-73
2021/10/23 06:51:36;;;;;;;4.28;1.00;;;;;;;6.06;61.21;100454.47;5105571;28;20031;-74
2021/10/23 06:54:01;;;;;;;1.02;0.70;;;;;;;6.42;61.33;100465.16;5105620;28;20083;-72
2021/10/23 06:56:28;;;;;;;2.58;1.02;;;;;;;6.91;60.74;100463.84;5105357;28;20054;-68
2021/10/23 06:58:54;;;;;;;3.03;0.80;;;;;;;7.49;61.14;100467.66;5105455;28;20015;-72
2021/10/23 07:01:20;;;;;;;4.03;0.77;;;;;;;8.02;59.65;100470.47;5104932;28;20039;-71
2021/10/23 07:03:45;;;;;;;1.38;0.60;;;;;;;8.51;59.43;100478.34;5105105;28;20117;-71
2021/10/23 07:06:11;;;;;;;3.08;0.50;;;;;;;9.01;58.65;100496.53;5104534;28;20024;-70
2021/10/23 07:08:36;;;;;;;1.05;0.60;;;;;;;9.48;58.39;100492.13;5105117;28;20535;-71
2021/10/23 07:11:02;;;;;;;7.45;0.75;;;;;;;10.05;58.79;100500.56;5104375;28;20049;-70
2021/10/23 07:13:27;;;;;;;1.40;0.70;;;;;;;10.56;56.96;100503.78;5104892;28;20041;-71
2021/10/23 07:15:53;;;;;;;2.17;1.25;;;;;;;10.79;54.45;100495.81;5104590;28;20047;-72
2021/10/23 07:18:18;;;;;;;2.45;1.00;;;;;;;10.95;52.86;100512.13;5104370;28;20024;-71
2021/10/23 07:20:44;;;;;;;1.85;0.95;;;;;;;10.99;51.13;100511.22;5104331;28;20043;-70
2021/10/23 07:23:09;;;;;;;3.63;0.90;;;;;;;10.96;50.94;100515.59;5104819;28;20464;-70
2021/10/23 07:25:34;;;;;;;3.40;1.08;;;;;;;10.95;51.50;100508.66;5086058;28;20043;-70
2021/10/23 07:28:00;;;;;;;1.35;0.80;;;;;;;11.39;51.53;100538.59;5104871;28;20019;-69
2021/10/23 07:30:26;;;;;;;2.17;0.75;;;;;;;11.81;51.45;100547.69;5104312;28;20035;-71
2021/10/23 07:32:51;;;;;;;2.97;0.80;;;;;;;12.03;49.44;100545.69;5104477;28;20028;-71
2021/10/23 07:35:16;;;;;;;1.90;0.93;;;;;;;12.44;49.38;100549.56;5104230;28;20020;-71
2021/10/23 07:37:42;;;;;;;3.95;0.90;;;;;;;12.93;48.57;100575.75;5104702;28;20042;-71
2021/10/23 07:40:10;;;;;;;3.55;0.70;;;;;;;13.46;47.24;100573.16;5104533;28;20105;-70
2021/10/23 07:42:37;;;;;;;3.05;0.80;;;;;;;14.12;45.71;100577.19;5104724;28;20028;-71
2021/10/23 07:45:04;;;;;;;2.60;1.00;;;;;;;14.74;44.47;100574.97;5104425;28;20020;-71
2021/10/23 07:47:29;;;;;;;4.82;0.73;;;;;;;15.23;42.36;100565.09;5104410;28;20037;-71
2021/10/23 07:49:55;;;;;;;1.55;0.70;;;;;;;15.40;39.67;100555.09;5104327;28;20023;-70
2021/10/23 07:52:20;;;;;;;1.40;0.73;;;;;;;15.20;38.90;100564.31;5104451;28;20031;-71
2021/10/23 07:54:46;;;;;;;1.27;0.60;;;;;;;14.82;38.83;100570.47;5104378;28;20024;-71
2021/10/23 07:57:12;;;;;;;2.13;0.88;;;;;;;14.45;38.61;100579.09;5104379;28;20097;-71
2021/10/23 07:59:37;;;;;;;1.77;0.63;;;;;;;14.28;38.91;100592.53;5104066;28;20023;-71
2021/10/23 08:02:04;;;;;;;1.55;0.80;;;;;;;14.28;39.89;100600.34;5104011;28;20038;-70
2021/10/23 08:04:31;;;;;;;3.72;0.80;;;;;;;14.71;39.76;100611.63;5103556;28;20063;-71
2021/10/23 08:07:01;;;;;;;1.10;0.73;;;;;;;15.34;38.99;100622.38;5103818;28;20016;-71
2021/10/23 08:09:31;;;;;;;3.20;0.93;;;;;;;15.70;37.43;100623.22;5103635;28;20024;-70
2021/10/23 08:11:58;;;;;;;0.93;0.55;;;;;;;15.97;36.43;100623.38;5103698;28;20043;-71
2021/10/23 08:14:24;;;;;;;1.52;0.77;;;;;;;15.95;35.72;100638.25;5103627;28;20408;-71
2021/10/23 08:16:49;;;;;;;2.00;0.90;;;;;;;15.83;36.32;100645.53;5103828;28;20024;-71
2021/10/23 08:19:15;;;;;;;2.67;0.60;;;;;;;16.11;36.11;100654.44;5103534;28;20073;-72
2021/10/23 08:21:41;;;;;;;1.15;0.57;;;;;;;16.12;34.95;100660.56;5103497;28;20081;-72
2021/10/23 08:24:07;;;;;;;3.03;1.10;;;;;;;15.74;34.81;100662.38;5103564;28;20048;-70
2021/10/23 08:26:33;;;;;;;2.38;0.93;;;;;;;15.51;34.95;100659.47;5103707;28;20046;-71
2021/10/23 08:28:58;;;;;;;1.67;0.80;;;;;;;15.95;36.15;100688.00;5103752;28;20020;-71
2021/10/23 08:31:24;;;;;;;2.17;0.60;;;;;;;16.54;33.74;100680.31;5103500;28;20255;-71
2021/10/23 08:33:51;;;;;;;2.00;0.70;;;;;;;16.50;34.00;100690.06;5103622;28;20024;-71
2021/10/23 08:36:16;;;;;;;1.50;0.60;;;;;;;16.44;33.33;100684.97;5102540;28;20035;-72
2021/10/23 08:38:42;;;;;;;1.10;0.60;;;;;;;16.22;32.99;100693.44;5103594;28;20012;-71
2021/10/23 08:41:11;;;;;;;2.03;0.75;;;;;;;15.93;33.25;100705.50;5119185;28;20115;-72
2021/10/23 08:43:40;;;;;;;1.55;0.70;;;;;;;15.80;33.57;100710.22;5103757;28;20036;-71
2021/10/23 08:46:13;;;;;;;2.60;0.85;;;;;;;15.60;33.88;100708.97;5085329;28;20027;-71
2021/10/23 08:48:39;;;;;;;0.65;0.40;;;;;;;15.43;32.96;100714.63;5103363;28;20027;-71
2021/10/23 08:51:04;;;;;;;2.70;0.82;;;;;;;15.17;33.81;100726.53;5103070;28;20024;-71
2021/10/23 08:53:30;;;;;;;1.95;0.50;;;;;;;15.03;34.05;100740.75;5118888;28;20027;-70
2021/10/23 08:55:57;;;;;;;2.08;0.63;;;;;;;14.85;33.98;100731.56;5103355;28;20433;-71
2021/10/23 08:58:22;;;;;;;2.05;0.50;;;;;;;14.80;34.45;100744.75;5103365;28;20020;-70
2021/10/23 09:00:48;;;;;;;2.40;0.93;;;;;;;14.92;34.99;100748.84;5118921;28;20093;-70
2021/10/23 09:03:14;;;;;;;1.30;0.40;;;;;;;15.19;34.75;100738.66;5103468;28;20427;-71
2021/10/23 09:05:40;;;;;;;2.15;0.60;;;;;;;15.28;34.38;100749.81;5102816;28;20304;-72
2021/10/23 09:08:16;;;;;;;1.10;0.60;;;;;;;15.21;33.54;100755.19;5103297;28;20118;-71
2021/10/23 09:10:47;;;;;;;1.92;0.60;;;;;;;15.14;34.19;100769.31;5103064;28;20250;-73
2021/10/23 09:13:48;;;;;;;;;;;;;;;;;;;;;
2021/10/23 09:20:22;;;;;;;1.30;0.50;;;;;;;15.15;34.02;100775.38;5103413;28;20358;-72
2021/10/23 09:22:52;;;;;;;0.30;0.30;;;;;;;15.17;32.76;100790.16;5040453;28;20147;-73
2021/10/23 09:25:24;;;;;;;2.92;0.40;;;;;;;15.11;32.69;100793.75;5040437;28;20042;-71
2021/10/23 09:28:04;;;;;;;0.98;0.63;;;;;;;15.27;32.94;100796.03;5040470;28;20033;-72
2021/10/23 09:30:38;;;;;;;0.88;0.50;;;;;;;15.54;32.89;100805.94;5040285;28;20037;-72
2021/10/23 09:33:09;;;;;;;1.05;0.40;;;;;;;15.68;31.32;100801.25;5040138;28;20045;-72
2021/10/23 09:35:51;;;;;;;0.55;0.40;;;;;;;15.57;31.38;100803.25;5040032;28;20029;-73
2021/10/23 09:38:20;;;;;;;1.25;0.60;;;;;;;15.81;32.05;100804.44;5040226;28;20057;-72
2021/10/23 09:40:48;;;;;;;1.15;0.40;;;;;;;16.52;31.50;100808.78;5040126;28;20060;-72
2021/10/23 09:43:14;;;;;;;1.05;0.50;;;;;;;17.31;30.50;100818.84;5040566;28;20029;-72
2021/10/23 09:45:59;;;;;;;0.60;0.40;;;;;;;18.13;28.63;100824.22;5040212;28;20528;-71
2021/10/23 09:48:35;;;;;;;1.02;0.60;;;;;;;19.20;27.84;100822.22;5042374;28;20033;-72
2021/10/23 09:51:09;;;;;;;0.43;0.40;;;;;;;19.75;26.51;100826.22;5043576;28;20140;-72
2021/10/23 09:53:34;;;;;;;0.73;0.30;;;;;;;19.77;25.96;100827.03;5043945;28;20132;-72
2021/10/23 09:56:00;;;;;;;0.63;0.32;;;;;;;20.60;26.16;100835.94;5043710;28;20130;-71
2021/10/23 09:58:26;;;;;;;0.65;0.30;;;;;;;21.63;24.74;100818.09;5061189;28;20569;-72
2021/10/23 10:00:56;;;;;;;0.93;0.43;;;;;;;22.10;23.21;100840.50;5088102;28;20023;-71
2021/10/23 10:03:22;;;;;;;1.52;0.40;;;;;;;22.42;23.04;100858.28;5122105;28;20052;-70
2021/10/23 10:05:55;;;;;;;1.42;0.40;;;;;;;22.32;22.54;100857.06;5106305;28;20377;-70
2021/10/23 10:08:21;;;;;;;0.95;0.40;;;;;;;22.24;22.29;100860.06;5088100;28;20483;-70
2021/10/23 10:10:49;;;;;;;1.42;0.60;;;;;;;22.19;22.10;100865.59;5106362;28;20084;-71
2021/10/23 10:13:22;;;;;;;0.35;0.25;;;;;;;22.23;22.49;100879.53;5106533;28;20365;-72
2021/10/23 10:15:49;;;;;;;1.00;0.38;;;;;;;21.92;21.65;100873.97;5106472;28;20089;-72
2021/10/23 10:18:16;;;;;;;0.93;0.50;;;;;;;21.16;22.57;100876.59;5106412;28;20048;-71
2021/10/23 10:20:51;;;;;;;0.68;0.40;;;;;;;20.55;23.21;100866.03;5105832;28;20020;-71
2021/10/23 10:23:36;;;;;;;1.08;0.55;;;;;;;20.26;24.07;100873.38;5106492;28;20024;-72
2021/10/23 10:26:32;;;;;;;1.20;0.50;;;;;;;19.91;24.14;100878.28;5106264;28;20093;-73
2021/10/23 10:29:11;;;;;;;2.47;0.40;;;;;;;19.64;24.52;100887.25;5105324;28;20050;-72
2021/10/23 10:31:52;;;;;;;1.00;0.50;;;;;;;19.37;24.60;100895.28;5106041;28;20027;-71
2021/10/23 10:40:13;;;;;;;1.30;0.40;;;;;;;19.13;25.00;100902.31;5106231;28;20399;-70
2021/10/23 10:43:13;;;;;;;1.27;0.50;;;;;;;19.12;24.77;100905.88;5106085;28;20076;-71
2021/10/23 10:45:41;;;;;;;1.00;0.50;;;;;;;19.28;25.17;100912.25;5104234;28;20051;-71
2021/10/23 10:48:07;;;;;;;0.70;0.55;;;;;;;19.67;24.40;100913.47;5105839;28;20016;-71
2021/10/23 10:50:49;;;;;;;0.68;0.40;;;;;;;19.80;24.09;100923.50;5121163;28;20031;-71
2021/10/23 10:53:26;;;;;;;1.02;0.82;;;;;;;20.23;24.22;100912.19;5105791;28;20023;-71
2021/10/23 10:56:05;;;;;;;1.20;0.50;;;;;;;20.68;23.16;100924.38;5121474;28;20047;-71
2021/10/23 10:58:48;;;;;;;0.88;0.45;;;;;;;20.89;23.48;100912.97;5087397;28;20569;-71
2021/10/23 11:01:25;;;;;;;0.57;0.30;;;;;;;21.20;22.90;100921.34;5105180;28;20032;-71
2021/10/23 11:03:56;;;;;;;0.60;0.32;;;;;;;21.25;22.83;100920.19;5105679;28;20030;-70
2021/10/23 11:06:30;;;;;;;0.82;0.50;;;;;;;21.09;23.03;100934.97;5105287;28;20030;-71
2021/10/23 11:09:11;;;;;;;1.27;0.50;;;;;;;20.79;22.31;100942.38;5105429;28;20023;-71
2021/10/23 11:11:59;;;;;;;1.35;0.60;;;;;;;20.24;22.29;100949.03;5105443;28;20030;-71
2021/10/23 11:14:27;;;;;;;1.77;0.45;;;;;;;19.73;22.86;100949.22;5098304;28;20090;-70
2021/10/23 11:16:52;;;;;;;3.45;0.55;;;;;;;19.79;23.62;100948.16;5105195;28;20027;-70
2021/10/23 11:19:28;;;;;;;2.15;0.55;;;;;;;19.77;23.68;100937.66;5105296;28;20031;-71
2021/10/23 11:22:16;;;;;;;1.63;0.32;;;;;;;19.71;22.66;100966.88;5105295;28;20039;-72
2021/10/23 11:24:42;;;;;;;0.90;0.50;;;;;;;19.74;22.89;100972.03;5104900;28;20036;-72
2021/10/23 11:27:28;;;;;;;0.93;0.50;;;;;;;19.62;23.36;100972.47;5105256;28;20495;-71
2021/10/23 11:30:29;;;;;;;0.65;0.40;;;;;;;18.40;23.68;100976.63;5104609;28;20039;-72
2021/10/23 11:33:01;;;;;;;1.30;0.40;;;;;;;16.79;25.34;100961.00;5104934;28;20020;-74
2021/10/23 11:35:34;;;;;;;1.70;0.50;;;;;;;15.46;26.39;100958.69;5104845;28;20016;-73
2021/10/23 11:38:04;;;;;;;1.15;0.50;;;;;;;14.67;27.56;100994.06;5086683;28;20028;-73
2021/10/23 11:40:30;;;;;;;0.65;0.50;;;;;;;13.78;28.56;100990.13;5104915;28;20055;-73
2021/10/23 11:42:58;;;;;;;1.60;0.60;;;;;;;13.18;29.90;100982.06;5105016;28;20050;-71
2021/10/23 11:45:28;;;;;;;1.13;0.50;;;;;;;12.80;30.27;100984.13;5086548;28;20020;-72